Time;durP1;ratioP1;P1;durP2;ratioP2;P2;SDS_P1;SDS_P2;PMS_P1;PMS_P2;Temp;Humidity;BMP_temperature;BMP_pressure;BME280_temperature;BME280_humidity;BME280_pressure;Samples;Min_cycle;Max_cycle;Signal;HPM_P1;HPM_P2
2021/06/17 00:01:03;;;;;;;6.25;5.50;;;22.70;89.40;;;;;;5060303;28;20076;-79
2021/06/17 00:03:28;;;;;;;9.32;5.65;;;22.70;89.40;;;;;;5021948;28;20045;-80
2021/06/17 00:05:54;;;;;;;8.15;5.57;;;22.60;89.50;;;;;;5025251;28;20107;-79
2021/06/17 00:08:19;;;;;;;5.90;5.30;;;22.60;89.60;;;;;;5028004;28;20045;-79
2021/06/17 00:10:49;;;;;;;8.23;5.70;;;22.60;89.60;;;;;;5024863;28;20060;-79
2021/06/17 00:13:18;;;;;;;6.72;5.70;;;22.60;89.80;;;;;;5029581;28;20136;-80
2021/06/17 00:15:45;;;;;;;8.63;5.63;;;22.50;90.00;;;;;;5036321;28;20101;-79
2021/06/17 00:18:12;;;;;;;7.00;6.05;;;22.50;90.00;;;;;;5036119;28;20037;-79
2021/06/17 00:20:37;;;;;;;7.15;5.75;;;22.50;90.10;;;;;;5025859;28;20045;-79
2021/06/17 00:23:04;;;;;;;6.10;5.20;;;22.40;90.20;;;;;;5023802;28;20137;-79
2021/06/17 00:25:30;;;;;;;9.38;6.00;;;22.40;90.20;;;;;;5014061;28;20037;-78
2021/06/17 00:27:55;;;;;;;11.32;6.35;;;22.40;90.40;;;;;;5030933;28;20033;-80
2021/06/17 00:30:22;;;;;;;8.48;5.95;;;22.40;90.40;;;;;;5024974;28;20052;-79
2021/06/17 00:32:47;;;;;;;8.23;5.35;;;22.30;90.50;;;;;;5026183;28;20041;-80
2021/06/17 00:35:13;;;;;;;6.95;5.90;;;22.30;90.40;;;;;;5022468;28;20044;-80
2021/06/17 00:37:39;;;;;;;6.88;6.07;;;22.30;90.50;;;;;;5040115;28;20042;-80
2021/06/17 00:40:10;;;;;;;6.82;5.78;;;22.20;90.50;;;;;;5020080;28;20069;-80
2021/06/17 00:42:38;;;;;;;11.32;6.25;;;22.20;90.60;;;;;;5024736;28;20353;-78
2021/06/17 00:45:16;;;;;;;7.47;6.70;;;22.20;90.60;;;;;;5033820;28;20412;-81
2021/06/17 00:47:41;;;;;;;8.85;5.93;;;22.10;90.80;;;;;;5035768;28;20135;-80
2021/06/17 00:50:08;;;;;;;7.90;5.93;;;22.10;90.90;;;;;;5025068;28;20120;-78
2021/06/17 00:52:34;;;;;;;9.45;6.45;;;22.00;90.90;;;;;;5021204;28;20401;-80
2021/06/17 00:55:00;;;;;;;8.50;6.20;;;22.00;90.90;;;;;;5025903;28;20045;-80
2021/06/17 00:57:26;;;;;;;9.18;7.03;;;22.00;91.00;;;;;;5021072;28;20077;-79
2021/06/17 00:59:52;;;;;;;10.05;6.63;;;22.00;91.10;;;;;;5030416;28;20467;-79
2021/06/17 01:02:18;;;;;;;7.20;5.88;;;21.90;91.20;;;;;;5035162;28;20049;-79
2021/06/17 01:04:43;;;;;;;7.63;6.05;;;21.90;91.30;;;;;;5027648;28;20042;-79
2021/06/17 01:07:10;;;;;;;7.90;6.68;;;21.90;91.30;;;;;;5030805;28;20095;-79
2021/06/17 01:09:52;;;;;;;11.02;6.38;;;21.80;91.40;;;;;;5029945;28;20041;-79
2021/06/17 01:12:36;;;;;;;;;;;21.80;91.30;;;;;;5025828;28;20048;-79
2021/06/17 01:15:08;;;;;;;8.05;6.10;;;21.80;91.30;;;;;;5029499;28;19928;-80
2021/06/17 01:17:38;;;;;;;9.23;6.60;;;21.70;91.30;;;;;;5025264;28;20033;-79
2021/06/17 01:20:09;;;;;;;8.48;6.40;;;21.70;91.40;;;;;;5034382;28;20041;-79
2021/06/17 01:22:52;;;;;;;10.23;6.03;;;21.70;91.40;;;;;;5046491;28;20305;-80
2021/06/17 01:25:36;;;;;;;8.13;5.70;;;21.70;91.40;;;;;;5018256;28;20038;-80
2021/06/17 01:28:13;;;;;;;7.40;6.28;;;21.60;91.30;;;;;;5027948;28;20041;-81
2021/06/17 01:30:45;;;;;;;8.85;7.40;;;21.60;91.50;;;;;;5025005;28;20383;-80
2021/06/17 01:33:11;;;;;;;;;;;21.60;91.50;;;;;;5023233;28;20045;-80
2021/06/17 01:35:43;;;;;;;7.13;5.93;;;21.60;91.50;;;;;;5022900;28;19917;-80
2021/06/17 01:38:11;;;;;;;7.60;6.38;;;21.50;91.50;;;;;;5030626;28;20083;-79
2021/06/17 01:40:38;;;;;;;8.13;6.30;;;21.50;91.50;;;;;;5032836;28;20076;-79
2021/06/17 01:43:04;;;;;;;7.57;6.70;;;21.50;91.40;;;;;;5032511;28;20132;-79
2021/06/17 01:45:30;;;;;;;7.03;6.13;;;21.50;91.40;;;;;;5033200;28;21416;-79
2021/06/17 01:47:57;;;;;;;7.10;6.40;;;21.40;91.40;;;;;;5029844;28;20127;-78
2021/06/17 01:50:26;;;;;;;10.55;6.45;;;21.40;91.50;;;;;;5033423;28;20052;-78
2021/06/17 01:52:53;;;;;;;7.88;6.40;;;21.40;91.50;;;;;;5016074;28;20041;-78
2021/06/17 01:55:19;;;;;;;7.80;5.75;;;21.40;91.50;;;;;;5032372;28;20041;-78
2021/06/17 01:57:46;;;;;;;7.15;5.60;;;21.40;91.40;;;;;;5020707;28;20033;-79
2021/06/17 02:00:13;;;;;;;8.98;5.10;;;21.30;91.50;;;;;;5035590;28;20338;-78
2021/06/17 02:02:39;;;;;;;6.38;5.60;;;21.30;91.40;;;;;;5033173;28;20306;-78
2021/06/17 02:05:06;;;;;;;6.13;5.50;;;21.30;91.40;;;;;;5022089;28;20045;-78
2021/06/17 02:07:32;;;;;;;8.45;5.75;;;21.20;91.40;;;;;;5028031;28;20080;-79
2021/06/17 02:09:59;;;;;;;6.32;5.57;;;21.20;91.40;;;;;;5029670;28;20044;-79
2021/06/17 02:12:25;;;;;;;6.50;5.35;;;21.20;91.50;;;;;;5024554;28;20045;-79
2021/06/17 02:14:51;;;;;;;5.68;5.07;;;21.20;91.50;;;;;;5046024;28;20303;-79
2021/06/17 02:17:18;;;;;;;8.65;5.28;;;21.10;91.40;;;;;;5038559;28;20069;-79
2021/06/17 02:19:44;;;;;;;6.03;4.93;;;21.10;91.40;;;;;;5032130;28;20050;-80
2021/06/17 02:22:12;;;;;;;7.95;5.25;;;21.10;91.40;;;;;;5027200;28;20041;-79
2021/06/17 02:24:39;;;;;;;9.30;5.13;;;21.10;91.30;;;;;;5036326;28;20041;-79
2021/06/17 02:27:17;;;;;;;8.07;5.72;;;21.00;91.30;;;;;;5036630;28;20123;-79
2021/06/17 02:29:46;;;;;;;7.03;5.90;;;21.00;91.40;;;;;;5027048;28;20041;-79
2021/06/17 02:32:19;;;;;;;7.63;5.90;;;21.00;91.50;;;;;;5030844;28;20668;-79
2021/06/17 02:34:47;;;;;;;6.13;5.53;;;20.90;91.50;;;;;;5029202;28;20034;-79
2021/06/17 02:37:15;;;;;;;6.40;5.50;;;20.90;91.50;;;;;;5031767;28;20049;-79
2021/06/17 02:39:41;;;;;;;6.82;4.88;;;20.90;91.60;;;;;;5037008;28;20056;-78
2021/06/17 02:42:07;;;;;;;6.10;5.50;;;20.90;91.50;;;;;;5037708;28;20053;-79
2021/06/17 02:44:34;;;;;;;7.13;5.32;;;20.80;91.50;;;;;;5029756;28;20074;-79
2021/06/17 02:46:59;;;;;;;6.75;5.57;;;20.80;91.60;;;;;;5031755;28;20448;-79
2021/06/17 02:49:25;;;;;;;9.27;5.25;;;20.80;91.60;;;;;;5017471;28;20049;-79
2021/06/17 02:51:50;;;;;;;7.00;5.38;;;20.70;91.60;;;;;;5035818;28;20033;-79
2021/06/17 02:54:18;;;;;;;7.38;4.82;;;20.70;91.60;;;;;;5033350;28;20041;-79
2021/06/17 02:57:08;;;;;;;6.90;4.80;;;20.70;91.50;;;;;;5036649;28;20048;-79
2021/06/17 02:59:52;;;;;;;7.85;5.00;;;20.70;91.50;;;;;;5033133;28;20053;-80
2021/06/17 03:02:38;;;;;;;6.70;5.05;;;20.70;91.50;;;;;;5027173;28;20445;-79
2021/06/17 03:05:16;;;;;;;8.65;5.28;;;20.60;91.60;;;;;;5030135;28;20300;-79
2021/06/17 03:07:48;;;;;;;6.55;5.05;;;20.60;91.60;;;;;;5060677;28;20274;-80
2021/06/17 03:10:14;;;;;;;7.45;4.95;;;20.60;91.40;;;;;;5033277;28;20037;-79
2021/06/17 03:12:44;;;;;;;5.30;4.65;;;20.50;91.40;;;;;;5032146;28;20436;-80
2021/06/17 03:15:11;;;;;;;9.48;4.68;;;20.60;91.40;;;;;;5034951;28;20069;-78
2021/06/17 03:17:42;;;;;;;8.60;5.15;;;20.60;91.50;;;;;;5037571;28;20109;-80
2021/06/17 03:20:09;;;;;;;10.32;5.15;;;20.60;91.40;;;;;;5030056;28;20040;-80
2021/06/17 03:22:38;;;;;;;7.00;4.88;;;20.60;91.40;;;;;;5030094;28;20052;-80
2021/06/17 03:25:08;;;;;;;6.20;4.90;;;20.50;91.30;;;;;;5025640;28;20117;-80
2021/06/17 03:27:36;;;;;;;5.03;4.50;;;20.60;91.20;;;;;;5025384;28;20043;-80
2021/06/17 03:30:06;;;;;;;6.47;4.70;;;20.60;91.20;;;;;;5033395;28;20045;-80
2021/06/17 03:32:34;;;;;;;7.00;5.00;;;20.50;91.20;;;;;;5035369;28;20041;-78
2021/06/17 03:35:02;;;;;;;5.78;4.78;;;20.50;91.30;;;;;;5034086;28;20080;-78
2021/06/17 03:37:29;;;;;;;4.88;4.38;;;20.60;91.30;;;;;;5033999;28;20166;-80
2021/06/17 03:39:57;;;;;;;4.55;4.13;;;20.50;91.30;;;;;;5023308;28;20042;-79
2021/06/17 03:42:23;;;;;;;6.15;4.55;;;20.60;91.20;;;;;;5017220;28;20045;-77
2021/06/17 03:44:51;;;;;;;9.05;4.93;;;20.60;91.10;;;;;;5032397;28;20072;-78
2021/06/17 03:47:17;;;;;;;6.97;5.20;;;20.60;91.20;;;;;;5034886;28;20397;-79
2021/06/17 03:49:44;;;;;;;8.82;4.63;;;20.60;91.10;;;;;;5036009;28;20075;-79
2021/06/17 03:52:12;;;;;;;8.38;5.25;;;20.60;91.10;;;;;;5030237;28;20029;-79
2021/06/17 03:54:38;;;;;;;6.65;5.40;;;20.60;91.00;;;;;;5032015;28;20040;-79
2021/06/17 03:57:06;;;;;;;6.13;4.32;;;20.60;91.00;;;;;;5034185;28;20416;-79
2021/06/17 03:59:41;;;;;;;9.23;4.97;;;20.60;91.00;;;;;;5025254;28;20037;-79
2021/06/17 04:02:08;;;;;;;5.25;4.43;;;20.60;91.00;;;;;;5036188;28;20099;-79
2021/06/17 04:04:34;;;;;;;6.70;4.75;;;20.70;91.00;;;;;;5029324;28;20042;-79
2021/06/17 04:07:04;;;;;;;8.40;4.70;;;20.70;90.90;;;;;;5034724;28;20041;-80
2021/06/17 04:09:32;;;;;;;5.38;4.57;;;20.70;90.80;;;;;;5030059;28;20038;-80
2021/06/17 04:12:01;;;;;;;5.75;5.03;;;20.70;90.70;;;;;;5035333;28;20445;-80
2021/06/17 04:14:28;;;;;;;6.28;4.38;;;20.80;90.60;;;;;;5035957;28;20492;-79
2021/06/17 04:16:54;;;;;;;6.30;5.03;;;20.80;90.60;;;;;;5037933;28;20435;-78
2021/06/17 04:19:23;;;;;;;6.50;4.13;;;20.80;90.70;;;;;;5035450;28;20069;-78
2021/06/17 04:21:50;;;;;;;6.00;4.15;;;20.90;90.70;;;;;;5035250;28;20393;-79
2021/06/17 04:24:22;;;;;;;6.03;3.85;;;20.90;90.60;;;;;;5036452;28;20589;-81
2021/06/17 04:26:50;;;;;;;9.27;4.75;;;20.90;90.50;;;;;;5030486;28;20037;-82
2021/06/17 04:29:17;;;;;;;5.80;4.20;;;21.00;90.30;;;;;;5033201;28;20152;-80
2021/06/17 04:31:44;;;;;;;12.25;4.38;;;21.00;90.10;;;;;;5030554;28;20300;-79
2021/06/17 04:34:11;;;;;;;4.97;4.20;;;21.00;90.00;;;;;;5029131;28;20067;-79
2021/06/17 04:36:37;;;;;;;6.53;4.10;;;21.10;90.10;;;;;;5033295;28;20043;-80
2021/06/17 04:39:04;;;;;;;6.70;4.38;;;21.10;90.40;;;;;;5031285;28;20030;-79
2021/06/17 04:41:29;;;;;;;5.18;3.90;;;21.10;90.20;;;;;;5033345;28;20049;-79
2021/06/17 04:43:56;;;;;;;6.70;5.13;;;21.10;89.90;;;;;;5022143;28;20038;-79
2021/06/17 04:46:22;;;;;;;9.13;4.10;;;21.20;89.90;;;;;;5022914;28;20055;-80
2021/06/17 04:48:49;;;;;;;8.45;4.43;;;21.20;89.90;;;;;;5038631;28;20045;-80
2021/06/17 04:51:16;;;;;;;4.50;3.92;;;21.20;90.00;;;;;;5026149;28;20123;-80
2021/06/17 04:53:42;;;;;;;5.97;4.30;;;21.20;89.90;;;;;;5032256;28;20072;-79
2021/06/17 04:56:07;;;;;;;5.13;4.13;;;21.30;90.10;;;;;;5029837;28;20077;-80
2021/06/17 04:58:35;;;;;;;6.63;4.57;;;21.30;90.00;;;;;;5031569;28;20037;-79
2021/06/17 05:01:05;;;;;;;5.07;4.57;;;21.30;90.00;;;;;;5033964;28;20072;-80
2021/06/17 05:03:31;;;;;;;6.28;4.35;;;21.30;90.10;;;;;;5033245;28;20432;-80
2021/06/17 05:05:58;;;;;;;5.50;4.20;;;21.30;90.10;;;;;;5031083;28;20052;-81
2021/06/17 05:10:57;;;;;;;7.53;4.55;;;21.40;90.00;;;;;;5028345;28;20492;-78
2021/06/17 05:13:26;;;;;;;5.75;4.28;;;21.40;90.00;;;;;;5029922;28;20116;-79
2021/06/17 05:15:53;;;;;;;7.38;4.47;;;21.40;90.20;;;;;;5025953;28;20592;-79
2021/06/17 05:18:19;;;;;;;4.68;4.07;;;21.50;90.10;;;;;;5035366;28;20034;-81
2021/06/17 05:20:45;;;;;;;5.57;4.13;;;21.50;90.00;;;;;;5027288;28;20136;-80
2021/06/17 05:23:14;;;;;;;7.55;3.75;;;21.60;90.10;;;;;;5031183;28;20153;-79
2021/06/17 05:25:40;;;;;;;6.70;4.38;;;21.60;90.20;;;;;;5027644;28;20138;-80
2021/06/17 05:28:06;;;;;;;8.98;4.07;;;21.60;90.00;;;;;;5029431;28;20428;-79
2021/06/17 05:30:31;;;;;;;7.10;4.25;;;21.70;89.90;;;;;;5019050;28;20120;-80
2021/06/17 05:32:57;;;;;;;7.20;4.75;;;21.70;90.10;;;;;;5028060;28;20038;-79
2021/06/17 05:35:22;;;;;;;8.02;4.32;;;21.70;90.10;;;;;;5027310;28;20034;-80
2021/06/17 05:37:49;;;;;;;9.90;4.53;;;21.80;90.10;;;;;;5036888;28;20033;-80
2021/06/17 05:40:15;;;;;;;15.85;4.78;;;21.90;89.00;;;;;;5036486;28;20052;-80
2021/06/17 05:42:40;;;;;;;11.48;4.43;;;21.90;89.10;;;;;;5036966;28;20044;-80
2021/06/17 05:45:06;;;;;;;6.65;3.65;;;21.90;89.20;;;;;;5036384;28;20305;-80
2021/06/17 05:47:32;;;;;;;4.22;3.83;;;22.00;88.70;;;;;;5036893;28;20137;-80
2021/06/17 05:49:57;;;;;;;4.88;3.88;;;22.10;88.40;;;;;;5036794;28;20073;-80
2021/06/17 05:52:23;;;;;;;5.97;2.90;;;22.20;87.60;;;;;;5025602;28;20045;-80
2021/06/17 05:54:48;;;;;;;5.53;3.35;;;22.30;87.50;;;;;;5023098;28;20417;-81
2021/06/17 05:57:14;;;;;;;7.75;3.03;;;22.40;87.50;;;;;;5037031;28;20429;-80
2021/06/17 05:59:39;;;;;;;5.38;3.63;;;22.50;87.10;;;;;;5030491;28;20045;-79
2021/06/17 06:02:06;;;;;;;6.18;3.63;;;22.60;87.50;;;;;;5019394;28;20116;-80
2021/06/17 06:04:32;;;;;;;3.88;3.47;;;22.70;87.10;;;;;;5023456;28;20049;-80
2021/06/17 06:06:57;;;;;;;4.85;3.40;;;22.80;87.30;;;;;;5040833;28;20049;-80
2021/06/17 06:09:25;;;;;;;9.18;3.53;;;22.90;86.90;;;;;;5027565;28;20041;-80
2021/06/17 06:11:51;;;;;;;7.30;3.13;;;22.90;87.10;;;;;;5020342;28;20041;-79
2021/06/17 06:14:16;;;;;;;4.10;3.20;;;23.00;87.50;;;;;;5018230;28;20064;-79
2021/06/17 06:16:42;;;;;;;6.20;3.95;;;23.20;86.40;;;;;;5024040;28;20045;-80
2021/06/17 06:19:08;;;;;;;5.32;3.33;;;23.30;86.40;;;;;;5023365;28;20037;-79
2021/06/17 06:21:33;;;;;;;4.82;3.50;;;23.40;84.50;;;;;;5026592;28;20037;-79
2021/06/17 06:24:00;;;;;;;5.57;3.00;;;23.60;84.50;;;;;;5016826;28;20421;-80
2021/06/17 06:26:25;;;;;;;5.78;3.15;;;23.90;83.20;;;;;;5024743;28;20664;-80
2021/06/17 06:28:51;;;;;;;5.63;2.63;;;24.10;81.30;;;;;;5025079;28;20056;-80
2021/06/17 06:31:16;;;;;;;4.40;2.90;;;24.30;81.30;;;;;;5018478;28;20080;-80
2021/06/17 06:33:42;;;;;;;6.10;2.83;;;24.50;80.50;;;;;;5027257;28;20409;-80
2021/06/17 06:36:07;;;;;;;5.32;2.40;;;24.70;79.50;;;;;;5026606;28;20042;-79
2021/06/17 06:38:33;;;;;;;5.15;2.90;;;24.80;77.80;;;;;;5033585;28;20086;-80
2021/06/17 06:40:59;;;;;;;4.15;2.63;;;24.90;75.20;;;;;;5027014;28;20057;-79
2021/06/17 06:43:25;;;;;;;6.63;2.75;;;25.00;75.40;;;;;;5021082;28;20045;-80
2021/06/17 06:45:50;;;;;;;4.15;2.45;;;25.10;74.90;;;;;;5031801;28;20041;-85
2021/06/17 06:48:18;;;;;;;5.72;2.25;;;25.20;76.60;;;;;;5027857;28;20440;-86
2021/06/17 06:50:44;;;;;;;4.88;2.03;;;25.30;74.50;;;;;;5034422;28;20052;-79
2021/06/17 06:53:09;;;;;;;3.35;2.38;;;25.40;75.90;;;;;;5036345;28;20033;-80
2021/06/17 06:55:35;;;;;;;3.67;2.47;;;25.50;74.60;;;;;;5025753;28;20080;-80
2021/06/17 06:58:00;;;;;;;2.42;2.17;;;25.60;75.70;;;;;;5036870;28;20042;-80
2021/06/17 07:00:26;;;;;;;8.50;2.53;;;25.70;72.80;;;;;;5018093;28;20120;-80
2021/06/17 07:02:51;;;;;;;5.35;2.63;;;25.90;72.90;;;;;;5020334;28;20056;-80
2021/06/17 07:05:17;;;;;;;4.88;2.25;;;25.90;72.10;;;;;;5017557;28;20389;-80
2021/06/17 07:07:43;;;;;;;2.88;2.40;;;26.00;72.60;;;;;;5021102;28;20037;-80
2021/06/17 07:10:09;;;;;;;5.40;2.17;;;26.10;72.70;;;;;;5020121;28;20044;-80
2021/06/17 07:12:35;;;;;;;3.40;2.03;;;26.30;72.00;;;;;;5036725;28;20065;-80
2021/06/17 07:15:01;;;;;;;5.03;2.20;;;26.40;71.00;;;;;;5034912;28;20069;-80
2021/06/17 07:17:27;;;;;;;4.50;2.38;;;26.50;71.40;;;;;;5038226;28;20275;-80
2021/06/17 07:19:55;;;;;;;4.20;2.00;;;26.70;71.40;;;;;;5037266;28;20037;-80
2021/06/17 07:22:22;;;;;;;5.50;2.22;;;26.80;69.40;;;;;;5019571;28;20338;-78
2021/06/17 07:24:47;;;;;;;6.60;2.28;;;27.00;71.70;;;;;;5035628;28;20151;-80
2021/06/17 07:27:13;;;;;;;4.50;2.92;;;27.10;71.60;;;;;;5032630;28;20037;-82
2021/06/17 07:29:38;;;;;;;5.35;2.45;;;27.20;73.20;;;;;;5020251;28;20037;-90
2021/06/17 07:32:06;;;;;;;4.05;2.30;;;27.40;69.20;;;;;;5043889;28;20108;-86
2021/06/17 07:34:32;;;;;;;5.30;2.28;;;27.50;69.60;;;;;;5021617;28;20045;-82
2021/06/17 07:36:57;;;;;;;4.60;2.08;;;27.60;68.90;;;;;;5030111;28;20048;-81
2021/06/17 07:39:23;;;;;;;4.32;2.50;;;27.80;71.10;;;;;;5034695;28;20060;-82
2021/06/17 07:41:49;;;;;;;4.97;2.28;;;27.90;68.50;;;;;;5033856;28;20116;-84
2021/06/17 07:44:14;;;;;;;4.85;2.40;;;28.00;67.80;;;;;;5035696;28;20161;-83
2021/06/17 07:46:40;;;;;;;2.58;2.00;;;28.10;68.80;;;;;;5047045;28;20065;-83
2021/06/17 07:49:05;;;;;;;5.53;1.77;;;28.30;68.50;;;;;;5038385;28;20528;-83
2021/06/17 07:51:31;;;;;;;4.40;1.80;;;28.40;67.10;;;;;;5034362;28;20334;-83
2021/06/17 07:54:00;;;;;;;4.45;2.53;;;28.50;65.60;;;;;;5030780;28;20037;-83
2021/06/17 07:56:26;;;;;;;3.13;2.00;;;28.60;65.90;;;;;;5030420;28;20045;-83
2021/06/17 07:58:52;;;;;;;3.17;2.08;;;28.70;65.30;;;;;;5028489;28;20124;-83
2021/06/17 08:01:17;;;;;;;3.90;1.85;;;28.80;64.80;;;;;;5025882;28;20124;-82
2021/06/17 08:03:43;;;;;;;5.65;1.85;;;28.90;65.70;;;;;;5035591;28;20352;-82
2021/06/17 08:06:09;;;;;;;3.95;2.20;;;29.00;64.80;;;;;;5031566;28;20061;-83
2021/06/17 08:08:34;;;;;;;3.80;2.40;;;29.10;64.60;;;;;;5024576;28;20053;-82
2021/06/17 08:11:00;;;;;;;9.07;2.38;;;29.30;67.20;;;;;;5023586;28;20041;-82
2021/06/17 08:13:26;;;;;;;2.55;2.22;;;29.40;64.60;;;;;;5026131;28;20511;-82
2021/06/17 08:15:52;;;;;;;3.00;1.90;;;29.50;63.80;;;;;;5030946;28;20405;-81
2021/06/17 08:18:17;;;;;;;4.03;2.28;;;29.70;64.70;;;;;;5037838;28;20052;-81
2021/06/17 08:20:43;;;;;;;3.65;2.05;;;29.90;67.10;;;;;;5034839;28;20055;-81
2021/06/17 08:23:10;;;;;;;7.70;2.05;;;30.00;61.90;;;;;;5021390;28;20127;-80
2021/06/17 08:25:36;;;;;;;2.95;2.10;;;30.10;64.20;;;;;;5032108;28;20151;-81
2021/06/17 08:28:04;;;;;;;3.13;1.92;;;30.30;63.20;;;;;;5028879;28;20120;-81
2021/06/17 08:30:32;;;;;;;5.57;2.30;;;30.40;60.50;;;;;;5030606;28;20404;-81
2021/06/17 08:32:58;;;;;;;2.65;1.83;;;30.50;59.60;;;;;;5030902;28;20052;-81
2021/06/17 08:35:23;;;;;;;2.97;1.83;;;30.60;57.20;;;;;;5026582;28;20121;-80
2021/06/17 08:37:49;;;;;;;5.63;1.73;;;30.60;57.90;;;;;;5028132;28;20050;-81
2021/06/17 08:40:16;;;;;;;2.75;2.00;;;30.70;59.60;;;;;;5033566;28;20049;-80
2021/06/17 08:42:42;;;;;;;4.07;2.20;;;30.80;57.80;;;;;;5032945;28;20042;-81
2021/06/17 08:45:10;;;;;;;3.55;2.20;;;30.80;60.30;;;;;;5030807;28;20049;-81
2021/06/17 08:47:37;;;;;;;2.78;1.90;;;30.90;60.70;;;;;;5035434;28;20040;-80
2021/06/17 08:50:06;;;;;;;4.10;1.83;;;31.00;60.40;;;;;;5032706;28;20055;-80
2021/06/17 08:52:34;;;;;;;2.50;1.88;;;31.00;59.20;;;;;;5027823;28;20060;-81
2021/06/17 08:55:10;;;;;;;3.00;1.92;;;31.10;59.10;;;;;;5043647;28;20043;-82
2021/06/17 08:57:35;;;;;;;4.35;2.17;;;31.30;58.50;;;;;;5026821;28;20056;-82
2021/06/17 09:00:01;;;;;;;3.78;2.28;;;31.40;58.90;;;;;;5020872;28;20319;-82
2021/06/17 09:02:33;;;;;;;3.10;1.80;;;31.50;62.70;;;;;;5031421;28;20098;-81
2021/06/17 09:05:16;;;;;;;3.75;2.22;;;31.60;63.90;;;;;;5018926;28;20038;-82
2021/06/17 09:07:43;;;;;;;5.45;1.98;;;31.70;62.10;;;;;;5028180;28;20037;-82
2021/06/17 09:10:10;;;;;;;3.63;2.17;;;31.80;61.60;;;;;;5026296;28;20087;-82
2021/06/17 09:12:50;;;;;;;3.33;2.10;;;31.70;62.60;;;;;;5019914;28;20038;-82
2021/06/17 09:15:26;;;;;;;4.22;2.15;;;31.70;61.90;;;;;;5028926;28;20310;-82
2021/06/17 09:18:12;;;;;;;3.22;2.10;;;31.80;62.50;;;;;;5028215;28;20045;-81
2021/06/17 09:20:41;;;;;;;2.83;2.30;;;31.80;61.40;;;;;;5027839;28;20037;-82
2021/06/17 09:23:26;;;;;;;2.25;1.88;;;31.90;60.70;;;;;;5027238;28;20063;-82
2021/06/17 09:25:55;;;;;;;4.22;2.22;;;31.90;58.80;;;;;;5030428;28;20134;-81
2021/06/17 09:28:21;;;;;;;4.95;2.70;;;31.90;61.30;;;;;;5032945;28;20045;-81
2021/06/17 09:30:46;;;;;;;3.42;2.22;;;32.00;60.40;;;;;;5038920;28;20041;-82
2021/06/17 09:33:16;;;;;;;4.03;2.38;;;32.10;60.10;;;;;;5032639;28;20107;-82
2021/06/17 09:35:52;;;;;;;2.83;2.25;;;32.20;62.10;;;;;;5032423;28;20059;-82
2021/06/17 09:38:18;;;;;;;4.32;2.55;;;32.30;59.50;;;;;;5029357;28;20115;-81
2021/06/17 09:40:46;;;;;;;3.45;2.13;;;32.40;59.70;;;;;;5032459;28;20430;-82
2021/06/17 09:43:19;;;;;;;3.40;2.15;;;32.50;57.40;;;;;;5031470;28;20037;-82
2021/06/17 09:45:58;;;;;;;5.80;2.53;;;32.50;59.80;;;;;;5030166;28;20448;-82
2021/06/17 09:48:43;;;;;;;3.28;2.03;;;32.60;59.20;;;;;;5019044;28;20056;-82
2021/06/17 09:51:37;;;;;;;5.05;2.50;;;32.60;57.80;;;;;;5017819;28;20037;-82
2021/06/17 09:54:13;;;;;;;4.53;2.45;;;32.70;58.10;;;;;;5033900;28;20092;-82
2021/06/17 09:56:40;;;;;;;8.35;2.85;;;32.70;59.10;;;;;;5033859;28;20418;-82
2021/06/17 09:59:07;;;;;;;3.42;2.65;;;32.90;60.50;;;;;;5034516;28;20065;-82
2021/06/17 10:01:45;;;;;;;2.58;2.35;;;32.90;59.60;;;;;;5033897;28;20103;-82
2021/06/17 10:04:17;;;;;;;4.57;2.67;;;32.90;60.70;;;;;;5034127;28;20060;-82
2021/06/17 10:06:43;;;;;;;4.28;2.38;;;33.10;59.50;;;;;;5034618;28;20144;-82
2021/06/17 10:09:14;;;;;;;4.90;2.08;;;33.20;56.90;;;;;;5034666;28;20041;-82
2021/06/17 10:11:41;;;;;;;2.97;2.28;;;33.30;56.90;;;;;;5034938;28;20397;-82
2021/06/17 10:14:08;;;;;;;4.15;2.35;;;33.40;55.00;;;;;;5035361;28;20041;-82
2021/06/17 10:16:34;;;;;;;4.45;2.22;;;33.40;55.20;;;;;;5034397;28;20161;-81
2021/06/17 10:19:01;;;;;;;5.50;2.40;;;33.40;54.60;;;;;;5030680;28;20042;-82
2021/06/17 10:21:28;;;;;;;4.40;2.20;;;33.40;56.10;;;;;;5032801;28;20144;-81
2021/06/17 10:23:54;;;;;;;2.67;2.25;;;33.50;56.20;;;;;;5029897;28;20131;-81
2021/06/17 10:26:22;;;;;;;3.75;2.17;;;33.60;58.90;;;;;;5030254;28;20111;-82
2021/06/17 10:28:51;;;;;;;2.92;2.13;;;33.70;55.50;;;;;;5037780;28;20040;-83
2021/06/17 10:31:35;;;;;;;5.65;2.10;;;33.80;53.30;;;;;;5028000;28;20108;-85
2021/06/17 10:34:23;;;;;;;2.15;1.63;;;33.90;51.60;;;;;;5025644;28;20038;-83
2021/06/17 10:37:11;;;;;;;2.67;1.80;;;33.90;53.70;;;;;;5028124;28;20068;-83
2021/06/17 10:39:41;;;;;;;2.45;1.73;;;33.90;52.30;;;;;;5031460;28;20061;-86
2021/06/17 10:42:13;;;;;;;5.22;2.30;;;33.80;52.20;;;;;;5031738;28;20045;-87
2021/06/17 10:44:57;;;;;;;5.38;2.22;;;33.90;53.00;;;;;;5030103;28;20041;-85
2021/06/17 10:47:41;;;;;;;5.40;1.83;;;34.00;52.80;;;;;;5036763;28;20069;-85
2021/06/17 10:50:12;;;;;;;5.10;1.88;;;34.10;53.30;;;;;;5027991;28;20119;-87
2021/06/17 10:52:40;;;;;;;3.30;2.30;;;34.20;53.50;;;;;;5031527;28;20037;-86
2021/06/17 10:55:07;;;;;;;5.45;1.77;;;34.30;52.20;;;;;;5019032;28;20033;-85
2021/06/17 10:57:42;;;;;;;4.60;2.40;;;34.30;50.70;;;;;;5033358;28;20320;-88
2021/06/17 11:00:26;;;;;;;3.00;2.00;;;34.40;50.70;;;;;;5027863;28;20096;-82
2021/06/17 11:03:04;;;;;;;4.50;2.13;;;34.40;49.80;;;;;;5034214;28;20045;-82
2021/06/17 11:05:33;;;;;;;3.30;2.30;;;34.50;50.80;;;;;;5036923;28;20049;-81
2021/06/17 11:08:17;;;;;;;2.33;1.85;;;34.60;49.40;;;;;;5036912;28;20483;-83
2021/06/17 11:10:45;;;;;;;3.80;1.90;;;34.50;49.40;;;;;;5036195;28;20076;-82
2021/06/17 11:13:47;;;;;;;4.78;2.22;;;34.60;52.50;;;;;;5051198;28;20033;-81
2021/06/17 11:16:12;;;;;;;6.65;1.83;;;34.60;51.30;;;;;;5033324;28;20451;-81
2021/06/17 11:18:41;;;;;;;3.28;1.85;;;34.60;52.20;;;;;;5036129;28;20041;-81
2021/06/17 11:21:25;;;;;;;5.88;2.00;;;34.70;51.30;;;;;;5037859;28;20361;-81
2021/06/17 11:23:52;;;;;;;5.90;2.20;;;34.80;50.20;;;;;;5035018;28;20072;-82
2021/06/17 11:26:37;;;;;;;3.22;1.92;;;34.90;48.60;;;;;;5035772;28;20535;-81
2021/06/17 11:29:10;;;;;;;4.50;1.70;;;34.90;47.00;;;;;;5036349;28;20417;-81
2021/06/17 11:31:48;;;;;;;3.38;2.22;;;35.00;48.70;;;;;;5033406;28;20413;-82
2021/06/17 11:34:15;;;;;;;2.42;2.03;;;35.00;50.90;;;;;;5030080;28;20507;-82
2021/06/17 11:36:55;;;;;;;2.78;1.90;;;35.10;50.10;;;;;;5035954;28;20125;-82
2021/06/17 11:39:28;;;;;;;3.95;2.00;;;35.20;48.30;;;;;;5035744;28;20045;-81
2021/06/17 11:41:57;;;;;;;2.97;1.67;;;35.20;48.50;;;;;;5035183;28;20061;-81
2021/06/17 11:44:25;;;;;;;2.50;1.75;;;35.30;48.90;;;;;;5036520;28;20045;-81
2021/06/17 11:47:03;;;;;;;2.25;1.85;;;35.30;46.60;;;;;;5035858;28;20060;-81
2021/06/17 11:49:40;;;;;;;2.17;1.70;;;35.40;45.90;;;;;;5036033;28;20045;-81
2021/06/17 11:52:10;;;;;;;3.00;1.85;;;35.40;46.60;;;;;;5035260;28;20112;-81
2021/06/17 11:54:37;;;;;;;3.20;2.22;;;35.30;50.00;;;;;;5035438;28;20068;-82
2021/06/17 11:57:04;;;;;;;5.57;1.73;;;35.30;50.00;;;;;;5036700;28;20045;-81
2021/06/17 11:59:37;;;;;;;3.22;1.88;;;35.20;50.60;;;;;;5035903;28;20124;-81
2021/06/17 12:02:18;;;;;;;5.15;2.17;;;35.20;51.00;;;;;;5035140;28;20313;-86
2021/06/17 12:05:02;;;;;;;8.60;2.00;;;35.30;46.10;;;;;;5037044;28;20044;-81
2021/06/17 12:07:38;;;;;;;4.35;2.03;;;35.30;50.60;;;;;;5036099;28;20037;-80
2021/06/17 12:10:23;;;;;;;2.17;1.63;;;35.40;51.00;;;;;;5035288;28;20060;-81
2021/06/17 12:12:50;;;;;;;4.13;2.08;;;35.50;48.90;;;;;;5026531;28;20413;-81
2021/06/17 12:15:25;;;;;;;2.38;1.48;;;35.60;47.40;;;;;;5035970;28;20708;-80
2021/06/17 12:17:59;;;;;;;3.47;1.77;;;35.60;46.50;;;;;;5035055;28;20286;-81
2021/06/17 12:20:33;;;;;;;3.25;1.65;;;35.60;46.40;;;;;;5036286;28;20037;-81
2021/06/17 12:22:59;;;;;;;3.00;1.70;;;35.50;45.90;;;;;;5035537;28;20033;-81
2021/06/17 12:25:26;;;;;;;2.60;2.00;;;35.40;45.20;;;;;;5035709;28;20079;-82
2021/06/17 12:27:53;;;;;;;3.88;2.20;;;35.30;46.70;;;;;;5035466;28;20067;-81
2021/06/17 12:30:27;;;;;;;3.15;1.92;;;35.20;48.90;;;;;;5015663;28;20054;-81
2021/06/17 12:32:55;;;;;;;3.78;1.50;;;35.10;47.10;;;;;;5015868;28;20046;-82
2021/06/17 12:35:22;;;;;;;3.55;2.03;;;35.10;46.90;;;;;;5015558;28;20041;-81
2021/06/17 12:37:54;;;;;;;3.70;2.20;;;35.00;48.20;;;;;;5016405;28;20298;-81
2021/06/17 12:40:26;;;;;;;3.22;1.77;;;35.10;48.50;;;;;;5027065;28;20379;-81
2021/06/17 12:43:22;;;;;;;2.28;1.80;;;35.10;46.10;;;;;;5045991;28;20045;-81
2021/06/17 12:46:06;;;;;;;2.92;1.80;;;35.10;48.70;;;;;;5027035;28;20120;-82
2021/06/17 12:54:22;;;;;;;1.80;1.55;;;35.10;47.10;;;;;;5035810;28;20677;-81
2021/06/17 12:57:03;;;;;;;3.72;1.67;;;35.20;48.30;;;;;;5035163;28;20116;-81
2021/06/17 12:59:41;;;;;;;3.13;1.92;;;35.20;46.40;;;;;;5034898;28;20039;-81
2021/06/17 13:02:12;;;;;;;2.30;1.60;;;35.30;47.30;;;;;;5034605;28;20304;-81
2021/06/17 13:04:38;;;;;;;3.63;1.80;;;35.30;48.10;;;;;;5036333;28;20099;-82
2021/06/17 13:07:19;;;;;;;3.50;1.67;;;35.30;46.20;;;;;;5036832;28;20030;-81